createdAt,value
2022-11-24T00:02:00.079Z,91.71
2022-11-24T00:07:03.516Z,91.66
2022-11-24T00:12:07.063Z,91.91
2022-11-24T00:17:11.871Z,91.97
2022-11-24T00:22:15.336Z,92.38
2022-11-24T00:27:18.730Z,91.93
2022-11-24T00:32:23.523Z,92.87
2022-11-24T00:37:26.957Z,94.11
2022-11-24T00:42:30.303Z,94.50
2022-11-24T00:47:35.090Z,94.98
2022-11-24T00:52:38.479Z,94.45
2022-11-24T00:57:41.869Z,94.71
2022-11-24T01:02:46.768Z,94.56
2022-11-24T01:07:50.213Z,94.92
2022-11-24T01:12:53.707Z,94.95
2022-11-24T01:17:58.632Z,95.07
2022-11-24T01:23:01.996Z,95.52
2022-11-24T01:28:05.685Z,95.98
2022-11-24T01:33:10.473Z,96.10
2022-11-24T01:38:13.855Z,96.27
2022-11-24T01:43:18.846Z,95.92
2022-11-24T01:48:27.949Z,96.26
2022-11-24T01:53:32.167Z,95.86
2022-11-24T01:58:37.701Z,96.01
2022-11-24T02:03:45.112Z,96.18
2022-11-24T02:08:53.166Z,96.06
2022-11-24T02:13:57.654Z,96.29
2022-11-24T02:19:02.939Z,96.36
2022-11-24T02:24:14.574Z,96.21
2022-11-24T02:29:20.692Z,96.20
2022-11-24T02:34:24.094Z,96.39
2022-11-24T02:39:27.597Z,96.29
2022-11-24T02:44:37.940Z,96.20
2022-11-24T02:49:41.660Z,96.45
2022-11-24T02:54:45.075Z,96.53
2022-11-24T02:59:49.908Z,96.78
2022-11-24T03:04:53.319Z,96.83
2022-11-24T03:09:56.684Z,96.79
2022-11-24T03:15:02.729Z,96.78
2022-11-24T03:20:07.657Z,96.56
2022-11-24T03:25:11.392Z,96.63
2022-11-24T03:30:17.379Z,96.22
2022-11-24T03:35:21.291Z,96.65
2022-11-24T03:40:24.692Z,96.90
2022-11-24T03:45:45.530Z,96.99
2022-11-24T03:50:54.401Z,97.21
2022-11-24T03:55:57.899Z,97.47
2022-11-24T04:01:02.946Z,97.11
2022-11-24T04:06:06.529Z,97.61
2022-11-24T04:11:29.908Z,97.46
2022-11-24T04:16:34.745Z,97.47
2022-11-24T04:21:38.248Z,97.83
2022-11-24T04:26:41.803Z,98.04
2022-11-24T04:31:46.599Z,97.59
2022-11-24T04:36:50.079Z,98.00
2022-11-24T04:41:53.508Z,98.61
2022-11-24T04:46:58.556Z,98.70
2022-11-24T04:52:01.988Z,99.56
2022-11-24T04:57:05.690Z,100.00
2022-11-24T05:02:11.185Z,100.00
2022-11-24T05:07:18.822Z,100.00
2022-11-24T05:12:22.660Z,100.00
2022-11-24T05:17:30.148Z,100.00
2022-11-24T05:22:33.850Z,100.00
2022-11-24T05:27:37.763Z,100.00
2022-11-24T05:32:42.770Z,100.00
2022-11-24T05:37:47.647Z,100.00
2022-11-24T05:42:51.068Z,100.00
2022-11-24T05:47:55.893Z,100.00
2022-11-24T05:53:04.210Z,100.00
2022-11-24T05:58:09.966Z,100.00
2022-11-24T06:03:14.812Z,100.00
2022-11-24T06:08:18.351Z,100.00
2022-11-24T06:13:21.850Z,100.00
2022-11-24T06:18:26.858Z,100.00
2022-11-24T06:23:30.299Z,100.00
2022-11-24T06:28:33.726Z,100.00
2022-11-24T06:33:39.716Z,100.00
2022-11-24T06:38:43.212Z,100.00
2022-11-24T06:43:47.690Z,100.00
2022-11-24T06:48:54.101Z,100.00
2022-11-24T06:53:57.547Z,100.00
2022-11-24T06:59:01.583Z,100.00
2022-11-24T07:04:06.803Z,100.00
2022-11-24T07:09:12.032Z,100.00
2022-11-24T07:14:15.543Z,100.00
2022-11-24T07:19:24.826Z,100.00
2022-11-24T07:24:28.617Z,100.00
2022-11-24T07:29:32.036Z,99.99
2022-11-24T07:34:37.135Z,99.50
2022-11-24T07:39:40.647Z,98.99
2022-11-24T07:44:44.055Z,98.80
2022-11-24T07:49:48.885Z,98.50
2022-11-24T07:54:52.363Z,98.15
2022-11-24T07:59:55.764Z,97.77
2022-11-24T08:05:00.603Z,98.00
2022-11-24T08:10:03.994Z,97.61
2022-11-24T08:15:11.115Z,97.34
2022-11-24T08:20:16.400Z,97.20
2022-11-24T08:25:20.086Z,97.20
2022-11-24T08:30:23.660Z,96.99
2022-11-24T08:35:29.222Z,96.03
2022-11-24T08:40:33.236Z,95.68
2022-11-24T08:45:41.163Z,96.14
2022-11-24T08:50:46.560Z,96.20
2022-11-24T08:55:50.010Z,96.32
2022-11-24T09:00:53.514Z,95.64
2022-11-24T09:05:58.325Z,95.62
2022-11-24T09:11:02.425Z,95.72
2022-11-24T09:16:06.661Z,96.15
2022-11-24T09:21:13.668Z,96.19
2022-11-24T09:26:18.987Z,96.51
2022-11-24T09:31:26.995Z,96.54
2022-11-24T09:36:32.596Z,96.32
2022-11-24T09:42:12.752Z,95.97
2022-11-24T09:47:24.711Z,95.71
2022-11-24T09:52:40.423Z,96.15
2022-11-24T09:57:45.255Z,95.95
2022-11-24T10:02:50.460Z,95.40
2022-11-24T10:08:04.947Z,94.81
2022-11-24T10:13:24.771Z,93.80
2022-11-24T10:18:45.297Z,93.62
2022-11-24T10:24:10.279Z,94.14
2022-11-24T10:29:21.342Z,93.33
2022-11-24T10:34:30.004Z,93.44
2022-11-24T10:39:40.828Z,93.16
2022-11-24T10:44:44.888Z,93.00
2022-11-24T10:49:56.775Z,93.07
2022-11-24T10:55:04.235Z,93.58
2022-11-24T11:00:34.414Z,94.24
2022-11-24T11:05:43.021Z,94.40
2022-11-24T11:10:49.976Z,93.98
2022-11-24T11:15:53.977Z,94.26
2022-11-24T11:21:01.776Z,93.88
2022-11-24T11:26:33.829Z,93.57
2022-11-24T11:31:37.954Z,92.91
2022-11-24T11:36:45.132Z,91.78
2022-11-24T11:41:53.109Z,91.34
2022-11-24T11:46:59.842Z,91.02
2022-11-24T11:52:22.886Z,90.38
2022-11-24T11:57:36.439Z,89.64
2022-11-24T12:03:00.932Z,89.67
2022-11-24T12:08:21.507Z,90.05
2022-11-24T12:13:50.245Z,91.08
2022-11-24T12:19:06.287Z,90.76
2022-11-24T12:24:15.371Z,91.21
2022-11-24T12:29:45.348Z,91.77
2022-11-24T12:34:56.623Z,92.64
2022-11-24T12:40:06.121Z,92.11
2022-11-24T12:45:17.667Z,92.57
2022-11-24T12:50:25.230Z,91.90
2022-11-24T12:55:30.202Z,91.32
2022-11-24T13:00:42.224Z,91.20
2022-11-24T13:05:52.514Z,91.01
2022-11-24T13:10:57.623Z,90.05
2022-11-24T13:22:16.471Z,91.24
2022-11-24T13:27:41.399Z,91.30
2022-11-24T13:33:03.414Z,92.19
2022-11-24T13:38:42.762Z,93.04
2022-11-24T13:44:20.772Z,93.47
2022-11-24T13:49:26.024Z,94.00
2022-11-24T13:54:30.330Z,93.81
2022-11-24T13:59:36.507Z,93.95
2022-11-24T14:04:45.809Z,94.10
2022-11-24T14:09:52.307Z,93.13
2022-11-24T14:15:22.963Z,93.01
2022-11-24T14:20:29.442Z,92.79
2022-11-24T14:25:35.307Z,92.61
2022-11-24T14:30:38.760Z,91.75
2022-11-24T14:35:46.844Z,91.99
2022-11-24T14:40:52.582Z,91.24
2022-11-24T14:45:58.483Z,91.40
2022-11-24T14:51:16.327Z,92.10
2022-11-24T14:56:28.441Z,91.75
2022-11-24T15:01:34.630Z,92.34
2022-11-24T15:06:40.766Z,92.60
2022-11-24T15:11:44.382Z,92.90
2022-11-24T15:16:47.905Z,93.00
2022-11-24T15:21:52.968Z,92.88
2022-11-24T15:27:02.710Z,93.61
2022-11-24T15:32:15.069Z,93.89
2022-11-24T15:37:19.833Z,92.81
2022-11-24T15:42:23.257Z,92.46
2022-11-24T15:47:26.725Z,92.81
2022-11-24T15:52:31.983Z,93.12
2022-11-24T15:57:35.734Z,92.18
2022-11-24T16:02:39.187Z,92.81
2022-11-24T16:07:44.213Z,92.27
2022-11-24T16:12:47.749Z,91.97
2022-11-24T16:17:51.196Z,91.07
2022-11-24T16:22:56.007Z,89.40
2022-11-24T16:27:59.900Z,87.68
2022-11-24T16:33:05.783Z,87.92
2022-11-24T16:38:16.388Z,86.05
2022-11-24T16:43:20.076Z,85.79
2022-11-24T16:48:23.482Z,85.94
2022-11-24T16:53:28.206Z,85.11
2022-11-24T16:58:31.580Z,84.24
2022-11-24T17:03:37.285Z,83.72
2022-11-24T17:08:42.871Z,83.98
2022-11-24T17:13:47.501Z,83.63
2022-11-24T17:18:51.898Z,84.19
2022-11-24T17:23:57.405Z,83.62
2022-11-24T17:29:00.987Z,84.26
2022-11-24T17:34:06.183Z,84.04
2022-11-24T17:39:11.442Z,84.09
2022-11-24T17:44:14.848Z,84.26
2022-11-24T17:49:18.566Z,84.85
2022-11-24T17:59:46.740Z,84.99
2022-11-24T18:04:50.300Z,84.64
2022-11-24T18:09:55.094Z,84.78
2022-11-24T18:14:58.516Z,85.02
2022-11-24T18:20:01.890Z,85.06
2022-11-24T18:25:09.224Z,85.31
2022-11-24T18:30:12.897Z,85.47
2022-11-24T18:35:16.384Z,85.41
2022-11-24T18:40:21.469Z,85.22
2022-11-24T18:45:24.948Z,85.10
2022-11-24T18:50:28.498Z,85.12
2022-11-24T18:55:33.343Z,84.98
2022-11-24T19:00:37.082Z,85.32
2022-11-24T19:05:41.358Z,85.09
2022-11-24T19:10:46.452Z,85.15
2022-11-24T19:15:49.909Z,85.38
2022-11-24T19:20:53.378Z,85.32
2022-11-24T19:26:01.201Z,85.28
2022-11-24T19:31:06.724Z,85.18
2022-11-24T19:36:13.493Z,84.88
2022-11-24T19:41:19.627Z,84.92
2022-11-24T19:46:26.288Z,85.04
2022-11-24T19:51:32.400Z,85.22
2022-11-24T19:56:38.273Z,85.12
2022-11-24T20:01:42.747Z,85.52
2022-11-24T20:06:47.972Z,85.36
2022-11-24T20:11:52.862Z,85.80
2022-11-24T20:16:56.784Z,85.60
2022-11-24T20:22:00.336Z,85.64
2022-11-24T20:27:05.305Z,85.09
2022-11-24T20:32:08.738Z,84.97
2022-11-24T20:37:13.752Z,84.54
2022-11-24T20:42:18.555Z,84.46
2022-11-24T20:47:21.985Z,84.89
2022-11-24T20:52:25.429Z,84.87
2022-11-24T20:57:30.637Z,84.38
2022-11-24T21:02:34.120Z,84.90
2022-11-24T21:07:37.571Z,84.44
2022-11-24T21:12:42.361Z,84.23
2022-11-24T21:17:45.764Z,84.22
2022-11-24T21:22:49.097Z,83.62
2022-11-24T21:27:53.856Z,83.96
2022-11-24T21:32:57.261Z,84.10
2022-11-24T21:38:00.625Z,84.05
2022-11-24T21:43:05.516Z,83.96
2022-11-24T21:48:08.917Z,84.04
2022-11-24T21:53:12.237Z,83.87
2022-11-24T21:58:17.041Z,83.36
2022-11-24T22:03:21.090Z,83.36
2022-11-24T22:08:25.142Z,83.39
2022-11-24T22:13:30.054Z,83.17
2022-11-24T22:18:34.765Z,83.59
2022-11-24T22:23:38.204Z,83.76
2022-11-24T22:28:43.810Z,83.27
2022-11-24T22:33:47.638Z,83.35
2022-11-24T22:38:55.118Z,84.12
2022-11-24T22:43:59.865Z,84.34
2022-11-24T22:49:03.518Z,84.09
2022-11-24T22:54:07.466Z,84.09
2022-11-24T22:59:12.256Z,83.70
2022-11-24T23:04:15.888Z,83.90
2022-11-24T23:09:19.325Z,84.16
2022-11-24T23:14:24.135Z,83.97
2022-11-24T23:19:27.681Z,84.07
2022-11-24T23:24:31.209Z,84.52
2022-11-24T23:29:36.017Z,84.70
2022-11-24T23:34:39.378Z,84.07
2022-11-24T23:39:42.811Z,84.40
2022-11-24T23:44:47.602Z,83.97
2022-11-24T23:49:51.026Z,84.63
2022-11-24T23:54:54.496Z,84.65
2022-11-24T23:59:59.295Z,84.16
